Time;durP1;ratioP1;P1;durP2;ratioP2;P2;SDS_P1;SDS_P2;PMS_P1;PMS_P2;Temp;Humidity;BMP_temperature;BMP_pressure;BME280_temperature;BME280_humidity;BME280_pressure;Samples;Min_cycle;Max_cycle;Signal;HPM_P1;HPM_P2
2022/01/06 00:00:58;;;;;;;8.13;1.30;;;4.40;99.90;;;;;;5065212;28;20222;-71
2022/01/06 00:03:28;;;;;;;7.90;1.80;;;4.40;99.90;;;;;;5064972;28;20223;-74
2022/01/06 00:05:56;;;;;;;7.22;2.50;;;4.40;99.90;;;;;;5064294;28;20187;-75
2022/01/06 00:08:23;;;;;;;10.68;2.08;;;4.30;99.90;;;;;;5065200;28;20195;-72
2022/01/06 00:10:50;;;;;;;4.25;1.20;;;4.20;99.90;;;;;;5064871;28;20235;-72
2022/01/06 00:13:22;;;;;;;7.03;1.98;;;4.10;99.90;;;;;;5066154;28;20260;-72
2022/01/06 00:23:06;;;;;;;3.38;1.00;;;4.00;99.90;;;;;;5063319;28;20183;-73
2022/01/06 00:24:13;;;;;;;4.20;1.35;;;4.00;99.90;;;;;;5063415;28;20197;-71
2022/01/06 00:26:41;;;;;;;10.40;1.60;;;3.90;99.90;;;;;;5065392;28;20207;-72
2022/01/06 00:29:10;;;;;;;4.57;2.00;;;3.80;99.90;;;;;;5065653;28;20226;-72
2022/01/06 00:31:38;;;;;;;9.15;1.63;;;3.70;99.90;;;;;;5068831;28;20234;-72
2022/01/06 00:34:10;;;;;;;5.18;1.88;;;3.70;99.90;;;;;;5070200;28;20387;-74
2022/01/06 00:36:37;;;;;;;2.08;1.25;;;3.70;99.90;;;;;;5069468;28;20233;-72
2022/01/06 00:39:04;;;;;;;2.92;1.35;;;3.70;99.90;;;;;;5070285;28;20218;-72
2022/01/06 00:41:35;;;;;;;2.65;1.45;;;3.80;99.90;;;;;;5068632;28;20308;-72
2022/01/06 00:44:03;;;;;;;4.88;1.30;;;3.70;99.90;;;;;;5069054;28;20222;-72
2022/01/06 00:46:30;;;;;;;1.77;1.02;;;3.70;99.90;;;;;;5069490;28;20403;-73
2022/01/06 00:48:58;;;;;;;3.85;1.35;;;3.70;99.90;;;;;;5069359;28;20278;-73
2022/01/06 00:51:26;;;;;;;2.85;1.00;;;3.60;99.90;;;;;;5067975;28;20247;-73
2022/01/06 00:53:53;;;;;;;3.42;1.33;;;3.60;99.90;;;;;;5069020;28;20473;-73
2022/01/06 00:56:19;;;;;;;2.33;1.13;;;3.60;99.90;;;;;;5069276;28;20187;-73
2022/01/06 00:58:48;;;;;;;8.63;1.73;;;3.50;99.90;;;;;;5070054;28;20211;-73
2022/01/06 01:01:15;;;;;;;5.05;1.75;;;3.50;99.90;;;;;;5068496;28;20221;-73
2022/01/06 01:03:44;;;;;;;7.40;1.95;;;3.50;99.90;;;;;;5070713;28;20227;-74
2022/01/06 01:06:13;;;;;;;2.60;1.25;;;3.50;99.90;;;;;;5069681;28;20336;-73
2022/01/06 01:08:42;;;;;;;6.35;1.58;;;3.40;99.90;;;;;;5068938;28;20207;-73
2022/01/06 01:11:09;;;;;;;3.00;1.25;;;3.40;99.90;;;;;;5068726;28;20223;-73
2022/01/06 01:13:53;;;;;;;2.60;1.35;;;3.40;99.90;;;;;;5069444;28;20219;-72
2022/01/06 01:16:23;;;;;;;4.38;1.60;;;3.40;99.90;;;;;;5066380;28;20192;-72
2022/01/06 01:18:50;;;;;;;2.15;1.52;;;3.40;99.90;;;;;;5069143;28;20238;-72
2022/01/06 01:21:22;;;;;;;2.97;1.00;;;3.40;99.90;;;;;;5068214;28;20483;-73
2022/01/06 01:23:57;;;;;;;5.13;1.27;;;3.40;99.90;;;;;;5068371;28;20233;-73
2022/01/06 01:26:24;;;;;;;8.35;2.17;;;3.40;99.90;;;;;;5068409;28;20187;-73
2022/01/06 01:28:52;;;;;;;3.28;1.48;;;3.30;99.90;;;;;;5068760;28;20191;-73
2022/01/06 01:31:25;;;;;;;3.22;1.45;;;3.30;99.90;;;;;;5073464;28;20251;-72
2022/01/06 01:33:53;;;;;;;4.00;1.05;;;3.30;99.90;;;;;;5068647;28;20216;-73
2022/01/06 01:36:21;;;;;;;5.60;1.50;;;3.30;99.90;;;;;;5071878;28;20203;-73
2022/01/06 01:38:48;;;;;;;4.90;1.83;;;3.30;99.90;;;;;;5074411;28;20353;-72
2022/01/06 01:41:17;;;;;;;6.40;1.60;;;3.30;99.90;;;;;;5067130;28;20239;-72
2022/01/06 01:43:48;;;;;;;3.03;1.85;;;3.20;99.90;;;;;;5068123;28;20204;-72
2022/01/06 01:46:20;;;;;;;11.00;1.90;;;3.10;99.90;;;;;;5067851;28;20297;-73
2022/01/06 01:49:11;;;;;;;8.82;3.08;;;3.00;99.90;;;;;;5072680;28;20187;-73
2022/01/06 01:51:38;;;;;;;6.55;2.63;;;3.00;99.90;;;;;;5067233;28;20243;-72
2022/01/06 01:54:05;;;;;;;3.75;1.88;;;3.00;99.90;;;;;;5068267;28;20219;-73
2022/01/06 01:56:35;;;;;;;4.15;1.77;;;2.90;99.90;;;;;;5068216;28;20452;-72
2022/01/06 01:59:02;;;;;;;2.38;1.55;;;3.00;99.90;;;;;;5068099;28;20199;-72
2022/01/06 02:01:29;;;;;;;4.68;1.80;;;2.90;99.90;;;;;;5067428;28;20227;-73
2022/01/06 02:03:56;;;;;;;3.95;1.95;;;2.80;99.90;;;;;;5060497;28;20219;-74
2022/01/06 02:06:24;;;;;;;3.80;1.30;;;2.70;99.90;;;;;;5075725;28;20189;-73
2022/01/06 02:08:52;;;;;;;7.70;1.98;;;2.70;99.90;;;;;;5067795;28;20263;-73
2022/01/06 02:11:21;;;;;;;5.45;1.80;;;2.70;99.90;;;;;;5068964;28;20231;-73
2022/01/06 02:13:51;;;;;;;4.35;1.90;;;2.70;99.90;;;;;;5068149;28;20250;-73
2022/01/06 02:16:21;;;;;;;7.00;2.70;;;2.70;99.90;;;;;;5067689;28;20192;-73
2022/01/06 02:18:48;;;;;;;6.28;1.63;;;2.70;99.90;;;;;;5067836;28;20215;-73
2022/01/06 02:21:17;;;;;;;4.05;1.65;;;2.70;99.90;;;;;;5074185;28;20430;-72
2022/01/06 02:23:45;;;;;;;3.10;1.20;;;2.60;99.90;;;;;;5067626;28;20426;-72
2022/01/06 02:26:13;;;;;;;3.28;1.52;;;2.60;99.90;;;;;;5067642;28;20199;-73
2022/01/06 02:28:42;;;;;;;3.03;1.40;;;2.60;99.90;;;;;;5067409;28;20184;-73
2022/01/06 02:31:09;;;;;;;6.85;1.50;;;2.70;99.90;;;;;;5066831;28;20233;-74
2022/01/06 02:33:38;;;;;;;2.75;1.40;;;2.60;99.90;;;;;;5066456;28;20226;-74
2022/01/06 02:36:06;;;;;;;5.65;1.70;;;2.70;99.90;;;;;;5066930;28;20211;-72
2022/01/06 02:38:34;;;;;;;6.47;1.75;;;2.70;99.90;;;;;;5067574;28;20251;-74
2022/01/06 02:41:01;;;;;;;7.72;2.28;;;2.70;99.90;;;;;;5066753;28;20343;-74
2022/01/06 02:43:30;;;;;;;8.00;2.10;;;2.70;99.90;;;;;;5077338;28;20196;-73
2022/01/06 02:45:57;;;;;;;4.63;1.58;;;2.60;99.90;;;;;;5069247;28;20187;-74
2022/01/06 02:48:24;;;;;;;4.10;1.52;;;2.60;99.90;;;;;;5067271;28;20214;-72
2022/01/06 02:50:51;;;;;;;4.07;1.50;;;2.60;99.90;;;;;;5066471;28;20281;-72
2022/01/06 02:53:20;;;;;;;7.50;1.77;;;2.60;99.90;;;;;;5066994;28;20222;-72
2022/01/06 02:55:53;;;;;;;5.05;2.17;;;2.50;99.90;;;;;;5072341;28;20305;-74
2022/01/06 02:58:21;;;;;;;3.65;3.35;;;2.50;99.90;;;;;;5067300;28;20191;-73
2022/01/06 03:00:48;;;;;;;6.00;1.92;;;2.50;99.90;;;;;;5066875;28;20207;-73
2022/01/06 03:03:15;;;;;;;2.38;1.70;;;2.50;99.90;;;;;;5066935;28;20372;-73
2022/01/06 03:05:42;;;;;;;3.78;1.92;;;2.50;99.90;;;;;;5066997;28;20226;-73
2022/01/06 03:08:09;;;;;;;8.38;2.05;;;2.50;99.90;;;;;;5071442;28;20202;-73
2022/01/06 03:10:41;;;;;;;2.53;1.85;;;2.50;99.90;;;;;;5066108;28;20258;-71
2022/01/06 03:13:09;;;;;;;3.42;1.70;;;2.50;99.90;;;;;;5067115;28;20191;-73
2022/01/06 03:15:36;;;;;;;3.53;1.65;;;2.50;99.90;;;;;;5066466;28;20402;-73
2022/01/06 03:18:03;;;;;;;6.93;1.88;;;2.50;99.90;;;;;;5067109;28;20211;-73
2022/01/06 03:20:30;;;;;;;8.00;2.40;;;2.50;99.90;;;;;;5065823;28;20238;-73
2022/01/06 03:22:58;;;;;;;6.43;2.55;;;2.50;99.90;;;;;;5066929;28;20188;-74
2022/01/06 03:25:25;;;;;;;4.18;1.70;;;2.40;99.90;;;;;;5066539;28;20188;-74
2022/01/06 03:27:52;;;;;;;7.60;3.90;;;2.30;99.90;;;;;;5066942;28;20211;-73
2022/01/06 03:30:23;;;;;;;3.55;2.00;;;2.40;99.90;;;;;;5065731;28;20681;-73
2022/01/06 03:32:51;;;;;;;8.63;2.70;;;2.40;99.90;;;;;;5066604;28;20239;-73
2022/01/06 03:35:22;;;;;;;8.82;2.42;;;2.40;99.90;;;;;;5063385;28;20233;-72
2022/01/06 03:37:49;;;;;;;3.53;2.05;;;2.30;99.90;;;;;;5066419;28;20195;-73
2022/01/06 03:40:17;;;;;;;7.88;2.00;;;2.20;99.90;;;;;;5074013;28;20196;-73
2022/01/06 03:42:45;;;;;;;4.47;1.67;;;2.20;99.90;;;;;;5066243;28;20279;-73
2022/01/06 03:45:14;;;;;;;4.53;2.17;;;2.10;99.90;;;;;;5066181;28;20196;-74
2022/01/06 03:47:43;;;;;;;7.85;2.05;;;2.10;99.90;;;;;;5066470;28;20209;-73
2022/01/06 03:50:11;;;;;;;8.13;2.53;;;2.10;99.90;;;;;;5065734;28;20233;-74
2022/01/06 03:52:38;;;;;;;8.05;5.70;;;2.00;99.90;;;;;;5066137;28;20207;-73
2022/01/06 03:55:08;;;;;;;10.13;2.45;;;2.00;99.90;;;;;;5065626;28;20219;-75
2022/01/06 03:57:35;;;;;;;3.33;1.80;;;2.00;99.90;;;;;;5065691;28;20207;-75
2022/01/06 04:00:03;;;;;;;4.35;2.08;;;2.00;99.90;;;;;;5062862;28;20197;-73
2022/01/06 04:02:30;;;;;;;4.32;2.20;;;2.00;99.90;;;;;;5065812;28;20258;-73
2022/01/06 04:05:00;;;;;;;3.45;2.25;;;2.10;99.90;;;;;;5065862;28;20256;-73
2022/01/06 04:07:26;;;;;;;17.88;3.17;;;2.10;99.90;;;;;;5064729;28;20188;-73
2022/01/06 04:09:53;;;;;;;4.65;1.98;;;2.20;99.90;;;;;;5072403;28;20200;-74
2022/01/06 04:12:20;;;;;;;2.75;1.95;;;2.20;99.90;;;;;;5065388;28;20312;-74
2022/01/06 04:14:47;;;;;;;7.35;2.65;;;2.30;99.90;;;;;;5065579;28;20230;-74
2022/01/06 04:17:14;;;;;;;11.55;2.67;;;2.40;99.90;;;;;;5065116;28;20202;-75
2022/01/06 04:19:41;;;;;;;7.13;2.33;;;2.40;99.90;;;;;;5065246;28;20227;-75
2022/01/06 04:22:09;;;;;;;7.55;2.13;;;2.50;99.90;;;;;;5062779;28;20262;-74
2022/01/06 04:24:36;;;;;;;6.50;1.80;;;2.60;99.90;;;;;;5065475;28;20574;-76
2022/01/06 04:27:03;;;;;;;6.40;3.60;;;2.70;99.90;;;;;;5065897;28;20207;-74
2022/01/06 04:29:30;;;;;;;5.47;2.15;;;2.80;99.90;;;;;;5064903;28;20183;-74
2022/01/06 04:31:57;;;;;;;9.48;2.25;;;2.80;99.90;;;;;;5065007;28;20283;-75
2022/01/06 04:34:24;;;;;;;6.30;2.42;;;2.80;99.90;;;;;;5064816;28;20357;-74
2022/01/06 04:36:54;;;;;;;5.68;2.03;;;2.90;99.90;;;;;;5065305;28;20225;-73
2022/01/06 04:39:24;;;;;;;7.70;2.13;;;2.90;99.90;;;;;;5065998;28;20199;-73
2022/01/06 04:41:51;;;;;;;6.95;2.00;;;2.90;99.90;;;;;;5065042;28;20207;-72
2022/01/06 04:44:18;;;;;;;9.30;2.10;;;2.80;99.90;;;;;;5063629;28;20254;-73
2022/01/06 04:46:45;;;;;;;5.30;2.00;;;2.80;99.90;;;;;;5065615;28;20194;-73
2022/01/06 04:49:12;;;;;;;4.03;1.85;;;2.80;99.90;;;;;;5065398;28;20191;-74
2022/01/06 04:51:39;;;;;;;8.30;1.83;;;2.70;99.90;;;;;;5069930;28;20242;-74
2022/01/06 04:54:06;;;;;;;4.90;1.98;;;2.80;99.90;;;;;;5066000;28;20260;-74
2022/01/06 04:56:37;;;;;;;8.55;3.92;;;2.80;99.90;;;;;;5065560;28;20368;-74
2022/01/06 04:59:05;;;;;;;7.43;2.15;;;2.80;99.90;;;;;;5065488;28;20212;-73
2022/01/06 05:01:32;;;;;;;4.43;2.05;;;2.70;99.90;;;;;;5064614;28;20438;-73
2022/01/06 05:04:00;;;;;;;7.43;1.30;;;2.70;99.90;;;;;;5065180;28;20533;-74
2022/01/06 05:06:27;;;;;;;3.75;1.20;;;2.70;99.90;;;;;;5065175;28;20184;-75
2022/01/06 05:08:55;;;;;;;5.90;1.75;;;2.70;99.90;;;;;;5065162;28;20195;-73
2022/01/06 05:11:22;;;;;;;11.52;1.58;;;2.60;99.90;;;;;;5062474;28;20302;-73
2022/01/06 05:13:51;;;;;;;6.45;2.10;;;2.60;99.90;;;;;;5071141;28;20225;-73
2022/01/06 05:16:18;;;;;;;9.68;2.95;;;2.60;99.90;;;;;;5066325;28;20192;-75
2022/01/06 05:18:45;;;;;;;5.80;2.05;;;2.50;99.90;;;;;;5069047;28;20191;-75
2022/01/06 05:21:12;;;;;;;5.85;2.40;;;2.50;99.90;;;;;;5068776;28;20215;-73
2022/01/06 05:23:40;;;;;;;11.25;2.08;;;2.50;99.90;;;;;;5069030;28;20198;-75
2022/01/06 05:26:09;;;;;;;4.75;1.70;;;2.40;99.90;;;;;;5069193;28;20191;-73
2022/01/06 05:28:36;;;;;;;6.13;1.90;;;2.40;99.90;;;;;;5068867;28;20192;-72
2022/01/06 05:31:04;;;;;;;4.25;1.90;;;2.40;99.90;;;;;;5067921;28;20279;-74
2022/01/06 05:33:31;;;;;;;3.17;1.50;;;2.40;99.90;;;;;;5073812;28;20187;-74
2022/01/06 05:35:58;;;;;;;4.30;1.20;;;2.30;99.90;;;;;;5068133;28;20200;-73
2022/01/06 05:38:25;;;;;;;7.22;2.70;;;2.30;99.90;;;;;;5067835;28;20234;-72
2022/01/06 05:40:52;;;;;;;5.13;2.13;;;2.30;99.90;;;;;;5067252;28;20333;-73
2022/01/06 05:43:20;;;;;;;13.65;1.90;;;2.30;99.90;;;;;;5068650;28;20207;-76
2022/01/06 05:45:47;;;;;;;5.68;1.58;;;2.20;99.90;;;;;;5068164;28;20408;-72
2022/01/06 05:48:16;;;;;;;4.78;2.28;;;2.20;99.90;;;;;;5068957;28;20448;-74
2022/01/06 05:50:43;;;;;;;6.57;3.13;;;2.20;99.90;;;;;;5061046;28;20421;-74
2022/01/06 05:53:11;;;;;;;3.80;2.25;;;2.30;99.90;;;;;;5063687;28;20449;-74
2022/01/06 05:55:38;;;;;;;5.55;1.90;;;2.30;99.90;;;;;;5067740;28;20211;-75
2022/01/06 05:58:06;;;;;;;2.40;1.73;;;2.20;99.90;;;;;;5068223;28;20251;-73
2022/01/06 06:00:33;;;;;;;8.80;1.60;;;2.20;99.90;;;;;;5067430;28;20380;-75
2022/01/06 06:03:00;;;;;;;5.78;2.20;;;2.20;99.90;;;;;;5068058;28;20191;-74
2022/01/06 06:05:28;;;;;;;7.15;2.00;;;2.20;99.90;;;;;;5068516;28;20187;-72
2022/01/06 06:07:55;;;;;;;14.30;1.73;;;2.20;99.90;;;;;;5068189;28;20222;-73
2022/01/06 06:10:22;;;;;;;5.50;1.90;;;2.20;99.90;;;;;;5068065;28;20264;-75
2022/01/06 06:12:52;;;;;;;3.15;2.17;;;2.20;99.90;;;;;;5067074;28;20207;-72
2022/01/06 06:15:19;;;;;;;2.72;1.60;;;2.20;99.90;;;;;;5067980;28;20199;-72
2022/01/06 06:17:46;;;;;;;9.00;1.90;;;2.20;99.90;;;;;;5067213;28;20398;-72
2022/01/06 06:20:14;;;;;;;8.35;1.50;;;2.20;99.90;;;;;;5067500;28;20322;-73
2022/01/06 06:22:42;;;;;;;4.68;1.50;;;2.30;99.90;;;;;;5075381;28;20190;-72
2022/01/06 06:25:09;;;;;;;2.72;1.70;;;2.30;99.90;;;;;;5063673;28;20286;-72
2022/01/06 06:27:36;;;;;;;7.90;2.58;;;2.40;99.90;;;;;;5066035;28;20254;-74
2022/01/06 06:30:04;;;;;;;5.57;2.72;;;2.40;99.90;;;;;;5067637;28;20187;-77
2022/01/06 06:32:33;;;;;;;6.80;1.92;;;2.40;99.90;;;;;;5076265;28;20247;-75
2022/01/06 06:35:01;;;;;;;3.42;1.90;;;2.40;99.90;;;;;;5070849;28;20202;-78
2022/01/06 06:37:28;;;;;;;4.75;1.75;;;2.40;99.90;;;;;;5068448;28;20410;-74
2022/01/06 06:40:00;;;;;;;9.30;2.50;;;2.40;99.90;;;;;;5066679;28;20196;-73
2022/01/06 06:42:28;;;;;;;6.03;1.88;;;2.40;99.90;;;;;;5074284;28;20211;-75
2022/01/06 06:44:55;;;;;;;5.07;1.90;;;2.40;99.90;;;;;;5067503;28;20204;-75
2022/01/06 06:47:22;;;;;;;5.97;2.63;;;2.40;99.90;;;;;;5066513;28;20491;-74
2022/01/06 06:49:49;;;;;;;5.68;2.20;;;2.50;99.90;;;;;;5066664;28;20302;-74
2022/01/06 06:52:16;;;;;;;3.72;1.35;;;2.50;99.90;;;;;;5067050;28;20242;-73
2022/01/06 06:54:43;;;;;;;10.20;3.33;;;2.40;99.90;;;;;;5073993;28;20199;-73
2022/01/06 06:57:11;;;;;;;15.10;4.03;;;2.40;99.90;;;;;;5068166;28;20283;-74
2022/01/06 06:59:39;;;;;;;5.43;3.03;;;2.30;99.90;;;;;;5066953;28;20226;-73
2022/01/06 07:02:06;;;;;;;8.43;1.90;;;2.30;99.90;;;;;;5066974;28;20223;-73
2022/01/06 07:04:33;;;;;;;5.35;2.15;;;2.30;99.90;;;;;;5066172;28;20394;-74
2022/01/06 07:07:02;;;;;;;11.82;2.47;;;2.30;99.90;;;;;;5066938;28;20188;-75
2022/01/06 07:09:29;;;;;;;4.90;1.88;;;2.30;99.90;;;;;;5066585;28;20417;-72
2022/01/06 07:11:55;;;;;;;19.52;15.45;;;2.30;99.90;;;;;;5066666;28;20281;-76
2022/01/06 07:14:25;;;;;;;3.28;2.88;;;2.20;99.90;;;;;;5066432;28;20187;-72
2022/01/06 07:16:51;;;;;;;6.30;3.78;;;2.30;99.90;;;;;;5067117;28;20262;-71
2022/01/06 07:19:18;;;;;;;12.00;3.70;;;2.30;99.90;;;;;;5066230;28;20422;-72
2022/01/06 07:21:45;;;;;;;9.82;3.10;;;2.30;99.90;;;;;;5065682;28;20246;-76
2022/01/06 07:24:12;;;;;;;12.38;3.50;;;2.30;99.90;;;;;;5066913;28;20254;-75
2022/01/06 07:26:39;;;;;;;4.40;2.38;;;2.30;99.90;;;;;;5065854;28;20183;-74
2022/01/06 07:29:06;;;;;;;10.40;3.22;;;2.30;99.90;;;;;;5066351;28;20267;-74
2022/01/06 07:31:35;;;;;;;12.98;3.28;;;2.40;99.90;;;;;;5065609;28;20213;-76
2022/01/06 07:34:02;;;;;;;5.60;3.38;;;2.20;99.90;;;;;;5065075;28;20229;-73
2022/01/06 07:36:28;;;;;;;9.27;2.72;;;2.20;99.90;;;;;;5066393;28;20418;-73
2022/01/06 07:38:55;;;;;;;3.40;2.20;;;2.20;99.90;;;;;;5066974;28;20198;-73
2022/01/06 07:41:22;;;;;;;9.05;2.70;;;2.30;99.90;;;;;;5071277;28;20257;-75
2022/01/06 07:43:49;;;;;;;7.55;3.20;;;2.30;99.90;;;;;;5063519;28;20187;-72
2022/01/06 07:46:16;;;;;;;7.63;2.92;;;2.30;99.90;;;;;;5063591;28;20231;-76
2022/01/06 07:48:56;;;;;;;11.95;2.97;;;2.20;99.90;;;;;;5064146;28;20191;-79
2022/01/06 07:51:24;;;;;;;3.08;2.50;;;2.30;99.90;;;;;;5072539;28;20214;-74
2022/01/06 07:53:51;;;;;;;11.07;3.95;;;2.30;99.90;;;;;;5066162;28;20305;-73
2022/01/06 07:56:18;;;;;;;6.50;2.58;;;2.40;99.90;;;;;;5065410;28;20219;-76
2022/01/06 07:58:46;;;;;;;9.95;3.20;;;2.40;99.90;;;;;;5066317;28;20190;-75
2022/01/06 08:01:14;;;;;;;9.93;3.05;;;2.40;99.90;;;;;;5065056;28;20207;-75
2022/01/06 08:03:41;;;;;;;6.68;3.30;;;2.50;99.90;;;;;;5058410;28;20262;-74
2022/01/06 08:06:10;;;;;;;8.30;3.22;;;2.50;99.90;;;;;;5066120;28;20509;-73
2022/01/06 08:08:37;;;;;;;9.02;3.38;;;2.60;99.90;;;;;;5065093;28;20268;-74
2022/01/06 08:11:04;;;;;;;18.90;4.78;;;2.60;99.90;;;;;;5065426;28;20320;-75
2022/01/06 08:13:31;;;;;;;10.55;3.17;;;2.60;99.90;;;;;;5067982;28;20264;-75
2022/01/06 08:15:58;;;;;;;10.65;3.05;;;2.70;99.90;;;;;;5064950;28;20434;-73
2022/01/06 08:18:25;;;;;;;5.47;4.55;;;2.80;99.90;;;;;;5059504;28;20215;-74
2022/01/06 08:20:52;;;;;;;13.73;4.78;;;2.90;99.90;;;;;;5072159;28;20223;-74
2022/01/06 08:23:20;;;;;;;10.05;4.13;;;3.00;99.90;;;;;;5065709;28;20194;-75
2022/01/06 08:25:47;;;;;;;15.73;5.53;;;3.30;99.90;;;;;;5065156;28;20233;-72
2022/01/06 08:28:15;;;;;;;6.38;4.03;;;4.00;99.90;;;;;;5065559;28;20252;-74
2022/01/06 08:30:42;;;;;;;7.72;3.70;;;5.00;99.90;;;;;;5064880;28;20216;-72
2022/01/06 08:33:09;;;;;;;6.60;2.85;;;5.60;99.90;;;;;;5064970;28;20252;-73
2022/01/06 08:35:36;;;;;;;6.88;3.88;;;6.40;99.90;;;;;;5065199;28;20210;-72
2022/01/06 08:38:03;;;;;;;9.80;3.00;;;6.90;99.90;;;;;;5061170;28;20190;-73
2022/01/06 08:40:33;;;;;;;8.45;3.55;;;7.30;99.90;;;;;;5065070;28;20225;-73
2022/01/06 08:43:00;;;;;;;10.02;3.50;;;7.60;99.90;;;;;;5065657;28;20220;-73
2022/01/06 08:45:28;;;;;;;7.28;3.28;;;7.60;99.90;;;;;;5065652;28;20194;-74
2022/01/06 08:47:56;;;;;;;10.13;3.20;;;7.20;99.90;;;;;;5065771;28;20206;-73
2022/01/06 08:50:24;;;;;;;5.43;3.45;;;7.10;99.90;;;;;;5064965;28;20193;-74
2022/01/06 08:52:52;;;;;;;13.60;2.55;;;7.10;99.90;;;;;;5068260;28;20240;-77
2022/01/06 08:55:18;;;;;;;9.05;3.05;;;7.20;99.90;;;;;;5069260;28;20201;-72
2022/01/06 08:57:47;;;;;;;7.82;2.67;;;7.90;99.90;;;;;;5073259;28;20191;-73
2022/01/06 09:00:15;;;;;;;10.15;3.05;;;8.30;99.90;;;;;;5068892;28;20238;-73
2022/01/06 09:02:41;;;;;;;8.40;3.78;;;9.00;99.90;;;;;;5067827;28;20188;-73
2022/01/06 09:05:10;;;;;;;7.75;2.28;;;9.50;99.90;;;;;;5068961;28;20187;-73
2022/01/06 09:07:38;;;;;;;5.35;2.00;;;9.70;99.90;;;;;;5068247;28;20200;-75
2022/01/06 09:10:06;;;;;;;7.68;3.00;;;9.80;99.90;;;;;;5068461;28;20216;-73
2022/01/06 09:12:33;;;;;;;8.70;4.18;;;10.20;99.90;;;;;;5068438;28;20248;-72
2022/01/06 09:15:01;;;;;;;10.15;2.70;;;10.60;99.90;;;;;;5068086;28;20295;-74
2022/01/06 09:17:28;;;;;;;11.43;2.80;;;11.00;99.90;;;;;;5068223;28;20187;-74
2022/01/06 09:19:55;;;;;;;9.43;3.15;;;11.40;99.90;;;;;;5067783;28;20237;-74
2022/01/06 09:22:22;;;;;;;7.00;2.50;;;11.70;97.90;;;;;;5068632;28;20452;-74
2022/01/06 09:24:49;;;;;;;9.93;2.97;;;11.70;96.70;;;;;;5068871;28;20316;-75
2022/01/06 09:27:16;;;;;;;12.60;5.25;;;11.80;96.60;;;;;;5077138;28;20222;-74
2022/01/06 09:29:43;;;;;;;17.88;3.97;;;11.70;99.00;;;;;;5060659;28;20215;-73
2022/01/06 09:32:11;;;;;;;8.18;3.22;;;11.80;97.70;;;;;;5069505;28;20393;-75
2022/01/06 09:34:39;;;;;;;9.55;4.03;;;11.80;96.90;;;;;;5067577;28;20245;-76
2022/01/06 09:37:07;;;;;;;7.53;3.15;;;11.70;96.10;;;;;;5068531;28;20225;-74
2022/01/06 09:39:34;;;;;;;9.30;2.80;;;11.80;96.50;;;;;;5067798;28;20194;-72
2022/01/06 09:42:01;;;;;;;10.48;2.60;;;11.90;95.90;;;;;;5068414;28;20243;-73
2022/01/06 09:44:29;;;;;;;12.60;2.67;;;11.90;95.70;;;;;;5067265;28;20221;-73
2022/01/06 09:46:56;;;;;;;5.63;3.00;;;12.00;95.00;;;;;;5067469;28;20191;-72
2022/01/06 09:49:25;;;;;;;7.05;4.03;;;12.30;94.90;;;;;;5066481;28;20221;-72
2022/01/06 09:51:52;;;;;;;9.32;3.00;;;12.50;94.50;;;;;;5068149;28;20208;-72
2022/01/06 09:54:20;;;;;;;8.30;3.03;;;12.80;93.40;;;;;;5068045;28;20204;-71
2022/01/06 09:56:46;;;;;;;12.50;3.75;;;12.90;93.00;;;;;;5060582;28;20184;-72
2022/01/06 09:59:14;;;;;;;9.98;3.50;;;13.00;92.70;;;;;;5068208;28;20184;-74
2022/01/06 10:01:41;;;;;;;11.25;3.20;;;12.90;92.50;;;;;;5067019;28;20211;-72
2022/01/06 10:04:18;;;;;;;6.90;3.40;;;12.90;92.30;;;;;;5067868;28;20283;-73
2022/01/06 10:06:57;;;;;;;13.80;4.32;;;12.80;92.30;;;;;;5067793;28;20187;-73
2022/01/06 10:09:25;;;;;;;9.45;2.80;;;13.00;91.90;;;;;;5065936;28;20203;-71
2022/01/06 10:11:55;;;;;;;15.38;3.10;;;12.50;92.00;;;;;;5057588;28;20226;-74
2022/01/06 10:14:31;;;;;;;8.27;2.83;;;12.50;92.80;;;;;;5063709;28;20214;-75
2022/01/06 10:16:58;;;;;;;7.38;2.67;;;12.00;92.80;;;;;;5064372;28;20206;-72
2022/01/06 10:19:26;;;;;;;10.80;3.35;;;11.80;93.70;;;;;;5061781;28;20202;-73
2022/01/06 10:21:57;;;;;;;9.70;3.13;;;12.00;93.60;;;;;;5065518;28;20261;-75
2022/01/06 10:24:26;;;;;;;7.97;2.70;;;11.90;93.40;;;;;;5066947;28;20237;-73
2022/01/06 10:26:55;;;;;;;12.05;3.95;;;11.60;94.40;;;;;;5067189;28;20201;-74
2022/01/06 10:29:24;;;;;;;10.65;3.75;;;11.50;94.60;;;;;;5066190;28;20206;-71
2022/01/06 10:31:51;;;;;;;9.32;3.85;;;11.40;95.20;;;;;;5066701;28;20211;-73
2022/01/06 10:34:18;;;;;;;12.75;3.45;;;11.00;95.10;;;;;;5066997;28;20235;-73
2022/01/06 10:36:48;;;;;;;8.20;3.20;;;10.80;96.20;;;;;;5062534;28;20208;-70
2022/01/06 10:39:18;;;;;;;13.18;3.22;;;10.50;97.30;;;;;;5066090;28;20191;-73
2022/01/06 10:41:45;;;;;;;14.82;3.97;;;10.20;98.60;;;;;;5062887;28;20208;-71
2022/01/06 10:44:13;;;;;;;6.47;2.70;;;9.70;99.90;;;;;;5064885;28;20246;-72
2022/01/06 10:46:42;;;;;;;9.75;3.90;;;9.30;99.90;;;;;;5066318;28;20187;-74
2022/01/06 10:49:12;;;;;;;14.70;2.88;;;8.90;99.90;;;;;;5066434;28;20206;-73
2022/01/06 10:51:44;;;;;;;8.38;2.65;;;8.70;99.90;;;;;;5066545;28;20230;-73
2022/01/06 10:54:14;;;;;;;5.10;3.13;;;8.50;99.90;;;;;;5069399;28;20265;-73
2022/01/06 10:56:43;;;;;;;13.25;3.00;;;8.40;99.90;;;;;;5066918;28;20186;-72
2022/01/06 10:59:11;;;;;;;9.30;3.00;;;8.20;99.90;;;;;;5066253;28;20191;-72
2022/01/06 11:01:38;;;;;;;15.65;2.90;;;8.00;99.90;;;;;;5065945;28;20420;-73
2022/01/06 11:04:05;;;;;;;9.38;3.05;;;7.80;99.90;;;;;;5066417;28;20226;-71
2022/01/06 11:06:32;;;;;;;15.23;4.50;;;7.80;99.90;;;;;;5066497;28;20194;-70
2022/01/06 11:09:00;;;;;;;10.43;2.50;;;7.70;99.90;;;;;;5067711;28;20223;-71
2022/01/06 11:11:42;;;;;;;15.48;4.05;;;7.70;99.90;;;;;;5066712;28;20241;-71
2022/01/06 11:14:15;;;;;;;10.82;3.13;;;7.50;99.90;;;;;;5066075;28;20261;-72
2022/01/06 11:16:44;;;;;;;10.60;3.00;;;7.30;99.90;;;;;;5075109;28;20264;-73
2022/01/06 11:19:12;;;;;;;15.70;3.30;;;7.30;99.90;;;;;;5068227;28;20209;-73
2022/01/06 11:21:42;;;;;;;10.98;3.63;;;7.40;99.90;;;;;;5065941;28;20560;-72
2022/01/06 11:24:13;;;;;;;15.85;2.90;;;7.40;99.90;;;;;;5066502;28;20211;-72
2022/01/06 11:26:42;;;;;;;9.98;3.15;;;7.50;99.90;;;;;;5066040;28;20187;-73
2022/01/06 11:29:12;;;;;;;10.18;2.80;;;7.40;99.90;;;;;;5065895;28;20199;-72
2022/01/06 11:31:41;;;;;;;9.48;2.60;;;7.40;99.90;;;;;;5065440;28;20222;-73
2022/01/06 11:34:14;;;;;;;11.38;3.20;;;7.40;99.90;;;;;;5066516;28;20242;-72
2022/01/06 11:36:42;;;;;;;11.95;3.33;;;7.10;99.90;;;;;;5066513;28;20222;-72
2022/01/06 11:39:20;;;;;;;11.50;3.17;;;6.80;99.90;;;;;;5073519;28;20194;-72
2022/01/06 11:41:51;;;;;;;9.63;3.17;;;6.70;99.90;;;;;;5063783;28;20323;-72
2022/01/06 11:44:21;;;;;;;8.15;2.85;;;6.90;99.90;;;;;;5065703;28;20320;-72
2022/01/06 11:46:50;;;;;;;9.10;2.65;;;6.90;99.90;;;;;;5066095;28;20241;-72
2022/01/06 11:49:34;;;;;;;8.40;3.22;;;6.70;99.90;;;;;;5066011;28;20189;-73
2022/01/06 11:52:09;;;;;;;9.35;4.47;;;6.60;99.90;;;;;;5065599;28;20457;-73
2022/01/06 11:54:51;;;;;;;10.45;2.78;;;6.50;99.90;;;;;;5066118;28;20228;-72
2022/01/06 11:57:32;;;;;;;12.55;3.08;;;6.40;99.90;;;;;;5062488;28;20241;-74
2022/01/06 12:00:14;;;;;;;8.30;2.45;;;6.40;99.90;;;;;;5065069;28;20252;-73
2022/01/06 12:02:42;;;;;;;20.77;3.40;;;6.40;99.90;;;;;;5065590;28;20190;-72
2022/01/06 12:05:10;;;;;;;14.13;3.58;;;6.40;99.90;;;;;;5065698;28;20190;-73
2022/01/06 12:07:37;;;;;;;5.55;2.65;;;6.40;99.90;;;;;;5066055;28;20199;-71
2022/01/06 12:10:08;;;;;;;11.90;3.05;;;6.50;99.90;;;;;;5065174;28;20345;-74
2022/01/06 12:12:36;;;;;;;9.80;3.38;;;6.60;99.90;;;;;;5065414;28;20218;-73
2022/01/06 12:15:10;;;;;;;10.60;4.00;;;6.70;99.90;;;;;;5068620;28;20333;-73
2022/01/06 12:17:38;;;;;;;14.27;3.55;;;6.70;99.90;;;;;;5065400;28;20313;-73
2022/01/06 12:20:07;;;;;;;12.45;3.15;;;6.60;99.90;;;;;;5064901;28;20212;-72
2022/01/06 12:22:34;;;;;;;8.77;2.88;;;6.60;99.90;;;;;;5056376;28;20268;-72
2022/01/06 12:25:02;;;;;;;11.32;2.58;;;6.60;99.90;;;;;;5065389;28;20214;-72
2022/01/06 12:27:29;;;;;;;10.70;2.55;;;6.50;99.90;;;;;;5065191;28;20201;-71
2022/01/06 12:29:56;;;;;;;10.63;2.83;;;6.50;99.90;;;;;;5068981;28;20368;-71
2022/01/06 12:32:24;;;;;;;9.00;2.80;;;6.50;99.90;;;;;;5065074;28;20285;-72
2022/01/06 12:34:56;;;;;;;8.43;3.10;;;6.60;99.90;;;;;;5073508;28;20237;-72
2022/01/06 12:37:26;;;;;;;13.80;3.55;;;6.60;99.90;;;;;;5065071;28;20244;-72
2022/01/06 12:39:53;;;;;;;13.02;2.95;;;6.80;99.90;;;;;;5064225;28;20286;-72
2022/01/06 12:42:20;;;;;;;9.57;2.97;;;6.70;99.90;;;;;;5064830;28;20290;-70
2022/01/06 12:44:47;;;;;;;9.25;3.70;;;6.70;99.90;;;;;;5065091;28;20207;-71
2022/01/06 12:47:14;;;;;;;10.15;3.33;;;6.70;99.90;;;;;;5065273;28;20190;-71
2022/01/06 12:49:42;;;;;;;14.70;3.88;;;6.70;99.90;;;;;;5064353;28;20299;-72
2022/01/06 12:52:09;;;;;;;12.40;3.25;;;6.60;99.90;;;;;;5065078;28;20247;-71
2022/01/06 12:54:38;;;;;;;13.18;3.00;;;6.50;99.90;;;;;;5064691;28;20295;-72
2022/01/06 12:57:09;;;;;;;20.65;4.10;;;6.60;99.90;;;;;;5065271;28;20189;-73
2022/01/06 12:59:39;;;;;;;11.15;4.20;;;6.70;99.90;;;;;;5068311;28;20233;-72
2022/01/06 13:02:09;;;;;;;6.47;3.55;;;6.70;99.90;;;;;;5065612;28;20234;-72
2022/01/06 13:04:38;;;;;;;10.88;3.00;;;6.80;99.90;;;;;;5065478;28;20222;-75